Time;durP1;ratioP1;P1;durP2;ratioP2;P2;SDS_P1;SDS_P2;PMS_P1;PMS_P2;Temp;Humidity;BMP_temperature;BMP_pressure;BME280_temperature;BME280_humidity;BME280_pressure;Samples;Min_cycle;Max_cycle;Signal;HPM_P1;HPM_P2
2023/07/29 00:03:07;;;;;;;4.20;3.78;;;16.90;99.90;;;17.67;100.00;97532.16;10383256;28;20798;-81
2023/07/29 00:08:11;;;;;;;5.65;4.35;;;17.00;99.90;;;17.65;100.00;97533.84;10388817;28;20245;-81
2023/07/29 00:13:15;;;;;;;4.32;4.03;;;16.90;99.90;;;17.37;100.00;97538.34;10388676;28;20249;-81
2023/07/29 00:18:20;;;;;;;3.85;3.50;;;16.70;99.90;;;17.27;100.00;97537.22;10389370;28;20238;-80
2023/07/29 00:23:23;;;;;;;4.00;3.70;;;16.60;99.90;;;17.17;100.00;97524.03;10390049;28;20301;-81
2023/07/29 00:28:26;;;;;;;5.90;3.85;;;16.60;99.90;;;17.15;100.00;97524.00;10389117;28;20314;-80
2023/07/29 00:33:31;;;;;;;3.53;3.20;;;16.50;99.90;;;17.14;100.00;97531.69;10378776;28;20230;-81
2023/07/29 00:38:34;;;;;;;4.82;3.60;;;16.50;99.90;;;17.16;100.00;97527.47;10386474;28;20687;-80
2023/07/29 00:43:37;;;;;;;3.97;3.58;;;16.50;99.90;;;17.13;100.00;97517.91;10378757;28;20229;-80
2023/07/29 00:48:42;;;;;;;2.97;2.78;;;16.50;99.90;;;17.20;100.00;97508.63;10384917;28;20282;-80
2023/07/29 00:53:45;;;;;;;3.28;3.03;;;16.50;99.90;;;17.20;100.00;97503.47;10383605;28;20239;-81
2023/07/29 00:58:48;;;;;;;5.07;3.40;;;16.50;99.90;;;17.19;100.00;97509.44;10383910;28;20278;-81
2023/07/29 01:03:53;;;;;;;4.35;3.20;;;16.50;99.90;;;17.04;100.00;97503.06;10371185;28;20242;-82
2023/07/29 01:09:03;;;;;;;3.22;2.85;;;16.40;99.90;;;17.14;100.00;97496.44;10382103;28;20314;-81
2023/07/29 01:14:23;;;;;;;4.45;3.00;;;16.50;99.90;;;17.23;100.00;97485.47;10380134;28;20321;-81
2023/07/29 01:19:58;;;;;;;3.15;2.28;;;16.50;99.90;;;17.18;100.00;97490.50;10372771;28;20276;-81
2023/07/29 01:25:04;;;;;;;3.97;2.78;;;16.50;99.90;;;17.24;100.00;97494.94;10383022;28;20226;-79
2023/07/29 01:30:08;;;;;;;3.88;2.85;;;16.60;99.90;;;17.24;100.00;97500.97;10383837;28;20314;-80
2023/07/29 01:35:24;;;;;;;3.00;2.80;;;16.60;99.90;;;17.23;100.00;97490.63;10378608;28;20318;-80
2023/07/29 01:40:29;;;;;;;2.70;2.50;;;16.50;99.90;;;17.11;100.00;97479.16;10383645;28;20285;-81
2023/07/29 01:45:36;;;;;;;2.40;2.30;;;16.50;99.90;;;17.11;100.00;97473.09;10383417;28;20244;-81
2023/07/29 01:50:39;;;;;;;2.17;2.03;;;16.50;99.90;;;17.21;100.00;97469.03;10386943;28;20280;-81
2023/07/29 01:55:44;;;;;;;2.35;2.15;;;16.60;99.90;;;17.22;100.00;97470.78;10388157;28;20299;-81
2023/07/29 02:00:48;;;;;;;2.78;2.60;;;16.60;99.90;;;17.24;100.00;97476.88;10385583;28;20580;-81
2023/07/29 02:05:51;;;;;;;3.95;2.70;;;16.60;99.90;;;17.16;100.00;97473.22;10383420;28;20229;-81
2023/07/29 02:10:55;;;;;;;3.15;2.72;;;16.50;99.90;;;17.27;100.00;97469.19;10393277;28;20233;-81
2023/07/29 02:15:59;;;;;;;2.50;2.30;;;16.60;99.90;;;17.33;100.00;97466.75;10389644;28;20285;-81
2023/07/29 02:21:02;;;;;;;3.53;2.40;;;16.60;99.90;;;17.29;100.00;97480.44;10384084;28;20250;-81
2023/07/29 02:26:07;;;;;;;2.63;2.42;;;16.60;99.90;;;17.33;100.00;97466.75;10394582;28;20730;-81
2023/07/29 02:31:16;;;;;;;2.63;2.15;;;16.60;99.90;;;17.23;100.00;97459.63;10389885;28;20237;-81
2023/07/29 02:36:20;;;;;;;2.38;2.28;;;16.50;99.90;;;17.11;100.00;97457.59;10386167;28;20226;-81
2023/07/29 02:41:24;;;;;;;1.95;1.85;;;16.50;99.90;;;17.17;100.00;97459.44;10393292;28;20250;-82
2023/07/29 02:46:28;;;;;;;2.60;2.40;;;16.50;99.90;;;17.17;100.00;97456.88;10391783;28;20242;-81
2023/07/29 02:51:31;;;;;;;4.47;2.60;;;16.50;99.90;;;17.13;100.00;97449.91;10394629;28;20226;-81
2023/07/29 02:56:35;;;;;;;2.70;2.50;;;16.40;99.90;;;16.95;100.00;97445.16;10383188;28;20261;-81
2023/07/29 03:01:39;;;;;;;2.78;2.58;;;16.30;99.90;;;17.00;100.00;97439.28;10378708;28;20454;-82
2023/07/29 03:06:42;;;;;;;2.88;2.50;;;16.30;99.90;;;16.93;100.00;97429.63;10376833;28;20700;-81
2023/07/29 03:11:47;;;;;;;2.50;2.30;;;16.30;99.90;;;17.01;100.00;97420.34;10385484;28;20253;-81
2023/07/29 03:16:50;;;;;;;2.70;2.50;;;16.30;99.90;;;16.92;100.00;97425.28;10376306;28;20218;-81
2023/07/29 03:21:53;;;;;;;3.00;2.80;;;16.30;99.90;;;16.92;100.00;97425.28;10382577;28;20253;-79
2023/07/29 03:26:58;;;;;;;2.78;2.58;;;16.30;99.90;;;16.80;100.00;97404.34;10382474;28;20230;-82
2023/07/29 03:32:01;;;;;;;2.60;2.40;;;16.10;99.90;;;16.76;100.00;97405.06;10385894;28;20254;-81
2023/07/29 03:37:05;;;;;;;3.00;2.80;;;16.10;99.90;;;16.80;100.00;97394.88;10388295;28;20264;-80
2023/07/29 03:42:10;;;;;;;3.92;2.70;;;16.20;99.90;;;16.76;100.00;97384.41;10387000;28;20226;-81
2023/07/29 03:47:13;;;;;;;2.47;2.17;;;16.20;99.90;;;16.76;100.00;97400.78;10389890;28;20703;-80
2023/07/29 03:52:16;;;;;;;2.53;2.40;;;16.10;99.90;;;16.75;100.00;97401.59;10382726;28;20971;-81
2023/07/29 03:57:21;;;;;;;2.85;2.58;;;16.20;99.90;;;17.00;100.00;97397.97;10386117;28;20615;-80
2023/07/29 04:02:24;;;;;;;2.58;2.38;;;16.30;99.90;;;16.87;100.00;97395.91;10381434;28;20245;-81
2023/07/29 04:07:27;;;;;;;2.60;2.40;;;16.20;99.90;;;16.87;100.00;97401.94;10384552;28;20230;-81
2023/07/29 04:12:32;;;;;;;2.72;2.40;;;16.20;99.90;;;17.01;100.00;97393.66;10374451;28;20247;-82
2023/07/29 04:17:35;;;;;;;2.60;2.30;;;16.40;99.90;;;17.16;100.00;97387.97;10379143;28;20219;-80
2023/07/29 04:22:38;;;;;;;2.90;2.55;;;16.50;99.90;;;17.14;100.00;97384.47;10374986;28;20231;-81
2023/07/29 04:27:43;;;;;;;1.98;1.77;;;16.50;99.90;;;17.18;100.00;97391.50;10374662;28;20606;-82
2023/07/29 04:32:48;;;;;;;1.70;1.60;;;16.50;99.90;;;17.18;100.00;97406.97;10384374;28;20253;-83
2023/07/29 04:37:51;;;;;;;2.00;1.90;;;16.50;99.90;;;17.14;100.00;97402.56;10380376;28;20298;-82
2023/07/29 04:42:56;;;;;;;2.35;2.15;;;16.50;99.90;;;17.16;100.00;97398.31;10383598;28;20715;-78
2023/07/29 04:47:59;;;;;;;2.40;2.30;;;16.50;99.90;;;17.07;100.00;97405.00;10381390;28;20261;-80
2023/07/29 04:53:02;;;;;;;2.75;2.20;;;16.40;99.90;;;16.95;100.00;97402.13;10381434;28;20286;-80
2023/07/29 04:58:07;;;;;;;2.40;2.20;;;16.40;99.90;;;17.01;100.00;97399.69;10378163;28;20226;-83
2023/07/29 05:03:11;;;;;;;3.20;2.90;;;16.50;99.90;;;17.00;100.00;97405.72;10384403;28;20230;-83
2023/07/29 05:08:14;;;;;;;2.72;2.50;;;16.50;99.90;;;17.07;100.00;97414.47;10378178;28;20269;-81
2023/07/29 05:13:19;;;;;;;3.30;2.90;;;16.60;99.90;;;17.14;100.00;97423.22;10374853;28;20240;-82
2023/07/29 05:18:23;;;;;;;4.05;2.95;;;16.60;99.90;;;17.17;100.00;97441.38;10382943;28;20230;-82
2023/07/29 05:23:26;;;;;;;3.28;2.97;;;16.70;99.90;;;17.19;100.00;97438.00;10379091;28;20727;-81
2023/07/29 05:28:30;;;;;;;2.70;2.50;;;16.60;99.90;;;17.13;100.00;97460.22;10377935;28;20238;-82
2023/07/29 05:33:36;;;;;;;3.30;2.58;;;16.60;99.90;;;17.05;100.00;97453.19;10379465;28;20230;-79
2023/07/29 05:38:39;;;;;;;3.13;2.58;;;16.60;99.90;;;16.99;100.00;97450.41;10378909;28;20226;-81
2023/07/29 05:43:45;;;;;;;2.85;2.65;;;16.60;99.90;;;17.01;100.00;97459.09;10375386;28;20226;-79
2023/07/29 05:48:48;;;;;;;3.35;2.70;;;16.70;99.90;;;17.13;100.00;97445.59;10378899;28;20219;-80
2023/07/29 05:53:51;;;;;;;3.40;3.00;;;16.70;99.90;;;17.20;100.00;97441.47;10374234;28;20222;-85
2023/07/29 05:58:56;;;;;;;3.28;2.90;;;16.80;99.90;;;17.22;100.00;97435.50;10384714;28;20234;-83
2023/07/29 06:03:59;;;;;;;3.50;3.20;;;16.80;99.90;;;17.06;100.00;97426.50;10393162;28;20234;-84
2023/07/29 06:09:02;;;;;;;3.83;3.47;;;16.70;99.90;;;17.05;100.00;97445.44;10375918;28;20229;-85
2023/07/29 06:14:07;;;;;;;3.97;3.40;;;16.70;99.90;;;17.27;100.00;97433.03;10389810;28;20241;-84
2023/07/29 06:19:10;;;;;;;4.10;3.80;;;17.00;99.90;;;17.54;100.00;97433.69;10384492;28;20229;-81
2023/07/29 06:24:13;;;;;;;5.25;4.75;;;17.20;99.90;;;17.72;100.00;97419.41;10381105;28;20258;-79
2023/07/29 06:29:18;;;;;;;5.10;4.55;;;17.30;99.90;;;18.16;100.00;97420.34;10383116;28;20317;-81
2023/07/29 06:34:22;;;;;;;4.30;4.00;;;17.80;99.90;;;19.32;100.00;97406.06;10387625;28;20227;-80
2023/07/29 06:39:28;;;;;;;3.38;3.08;;;18.70;99.90;;;19.71;100.00;97417.88;10388141;28;20225;-81
2023/07/29 06:44:34;;;;;;;3.40;3.10;;;18.90;99.90;;;19.73;100.00;97408.41;10381871;28;20235;-82
2023/07/29 06:49:37;;;;;;;3.15;2.80;;;19.10;99.90;;;20.18;100.00;97412.44;10389932;28;20222;-79
2023/07/29 06:54:40;;;;;;;3.13;2.83;;;19.50;99.90;;;20.20;100.00;97418.53;10387318;28;20238;-80
2023/07/29 06:59:45;;;;;;;2.90;2.70;;;19.50;99.90;;;20.11;100.00;97427.91;10383884;28;20285;-80
2023/07/29 07:04:48;;;;;;;3.55;2.95;;;19.50;99.90;;;19.95;100.00;97427.72;10389424;28;20222;-79
2023/07/29 07:09:52;;;;;;;2.88;2.67;;;19.40;99.90;;;19.94;100.00;97425.09;10385049;28;20273;-82
2023/07/29 07:14:56;;;;;;;3.28;2.60;;;19.40;99.90;;;19.73;100.00;97421.38;10387233;28;20226;-82
2023/07/29 07:20:00;;;;;;;2.50;2.30;;;19.20;99.90;;;19.53;100.00;97420.19;10382989;28;20245;-80
2023/07/29 07:25:03;;;;;;;3.13;2.53;;;19.00;99.90;;;19.44;100.00;97438.19;10378280;28;20227;-82
2023/07/29 07:30:12;;;;;;;4.70;2.55;;;18.90;99.90;;;19.34;100.00;97469.16;10374177;28;20513;-82
2023/07/29 07:35:16;;;;;;;4.05;3.10;;;18.90;99.90;;;18.93;100.00;97488.31;10377854;28;20967;-83
2023/07/29 07:40:19;;;;;;;4.20;3.10;;;18.60;99.90;;;18.74;100.00;97498.28;10381816;28;20688;-85
2023/07/29 07:45:24;;;;;;;4.50;3.08;;;18.50;99.90;;;18.66;100.00;97489.50;10380670;28;20290;-84
2023/07/29 07:50:30;;;;;;;4.05;3.28;;;18.40;99.90;;;18.55;100.00;97485.84;10386074;28;20214;-83
2023/07/29 07:55:34;;;;;;;3.30;2.90;;;18.20;99.90;;;18.53;100.00;97478.03;10385539;28;20728;-83
2023/07/29 08:00:38;;;;;;;3.05;2.80;;;18.20;99.90;;;18.55;100.00;97466.00;10392201;28;20249;-82
2023/07/29 08:05:42;;;;;;;2.90;2.65;;;18.10;99.90;;;18.46;100.00;97471.00;10375623;28;20227;-81
2023/07/29 08:10:45;;;;;;;2.50;2.30;;;18.20;99.90;;;18.83;100.00;97467.41;10358819;28;20254;-80
2023/07/29 08:15:51;;;;;;;2.15;1.95;;;18.50;99.90;;;19.36;100.00;97459.66;10367518;28;20234;-81
2023/07/29 08:20:57;;;;;;;2.13;1.92;;;19.00;99.90;;;19.56;100.00;97461.72;10376513;28;20714;-80
2023/07/29 08:26:03;;;;;;;2.30;2.08;;;19.20;99.90;;;19.51;100.00;97452.97;10372822;28;20236;-81
2023/07/29 08:31:08;;;;;;;2.08;1.90;;;19.10;99.90;;;19.57;100.00;97459.16;10366239;28;20238;-79
2023/07/29 08:36:12;;;;;;;2.75;2.17;;;19.20;99.90;;;19.62;100.00;97466.97;10370508;28;20250;-80
2023/07/29 08:41:21;;;;;;;4.10;2.58;;;19.20;99.90;;;19.65;100.00;97472.25;10370224;28;20227;-79
2023/07/29 08:46:26;;;;;;;2.97;1.92;;;19.20;99.90;;;19.68;100.00;97477.47;10368410;28;20243;-80
2023/07/29 08:51:32;;;;;;;2.50;2.28;;;19.30;99.90;;;19.80;100.00;97467.31;10368170;28;20211;-79
2023/07/29 08:56:36;;;;;;;3.00;2.65;;;19.50;99.90;;;20.31;100.00;97467.94;10369490;28;20245;-79
2023/07/29 09:01:42;;;;;;;3.08;2.42;;;19.80;99.90;;;20.80;100.00;97470.25;10374771;28;20230;-81
2023/07/29 09:06:47;;;;;;;3.28;2.13;;;20.40;99.90;;;21.22;100.00;97484.53;10368319;28;20251;-80
2023/07/29 09:11:50;;;;;;;2.80;2.47;;;20.70;99.90;;;21.30;100.00;97477.69;10375680;28;20230;-81
2023/07/29 09:16:55;;;;;;;3.00;2.78;;;20.70;99.90;;;21.23;100.00;97491.47;10370535;28;20298;-80
2023/07/29 09:21:58;;;;;;;3.00;2.53;;;20.80;99.90;;;21.47;100.00;97475.25;10367344;28;20222;-80
2023/07/29 09:27:02;;;;;;;2.75;2.55;;;21.00;99.90;;;21.69;100.00;97471.06;10362754;28;20276;-81
2023/07/29 09:32:24;;;;;;;2.85;2.65;;;21.10;99.90;;;21.66;100.00;97464.13;10366018;28;20223;-79
2023/07/29 09:37:27;;;;;;;4.03;2.97;;;21.30;99.90;;;22.23;100.00;97464.47;10366838;28;20223;-79
2023/07/29 09:42:30;;;;;;;3.97;2.60;;;22.10;99.90;;;22.49;100.00;97452.44;10366183;28;20277;-79
2023/07/29 09:47:35;;;;;;;2.95;2.67;;;22.20;99.90;;;22.97;100.00;97449.97;10374269;28;20215;-78
2023/07/29 09:52:39;;;;;;;2.60;2.40;;;22.80;99.90;;;23.39;100.00;97443.03;10373662;28;20257;-78
2023/07/29 09:57:44;;;;;;;2.70;2.50;;;23.20;99.90;;;23.44;98.66;97446.50;10375331;28;20223;-79
2023/07/29 10:02:49;;;;;;;2.50;2.30;;;23.10;99.90;;;23.44;100.00;97435.22;10370061;28;20252;-82
2023/07/29 10:07:53;;;;;;;2.47;2.22;;;23.00;99.90;;;23.43;100.00;97433.44;10352760;28;20230;-83
2023/07/29 10:12:58;;;;;;;2.40;2.20;;;23.10;99.90;;;23.61;99.27;97429.09;10361095;28;20321;-83
2023/07/29 10:18:03;;;;;;;3.75;2.10;;;23.40;99.90;;;23.81;94.13;97399.50;10362640;28;20218;-80
2023/07/29 10:23:09;;;;;;;2.47;2.20;;;23.60;99.90;;;23.85;97.79;97423.88;10360749;28;20219;-81
2023/07/29 10:28:16;;;;;;;2.67;2.42;;;23.60;99.90;;;24.13;96.28;97433.34;10364624;28;20222;-81
2023/07/29 10:33:21;;;;;;;2.78;2.35;;;23.90;99.90;;;24.28;87.02;97425.44;10353910;28;20674;-79
2023/07/29 10:38:26;;;;;;;2.60;2.40;;;23.90;99.90;;;24.47;87.94;97423.66;10353397;28;20217;-79
2023/07/29 10:43:34;;;;;;;2.35;2.25;;;24.10;99.90;;;24.91;87.15;97413.78;10360366;28;20775;-82
2023/07/29 10:48:53;;;;;;;2.42;2.28;;;24.50;99.90;;;24.78;83.79;97417.34;10361532;28;20226;-81
2023/07/29 10:53:59;;;;;;;2.75;2.03;;;24.20;99.90;;;24.56;83.60;97443.63;10361553;28;20221;-79
2023/07/29 10:59:34;;;;;;;1.48;1.38;;;24.00;99.90;;;23.51;78.34;97463.03;10364687;28;20214;-79
2023/07/29 11:04:48;;;;;;;1.60;1.08;;;22.70;99.90;;;22.94;80.89;97448.19;10354583;28;20217;-81
2023/07/29 11:10:04;;;;;;;1.17;1.10;;;22.10;99.90;;;22.72;84.19;97464.66;10366934;28;20284;-79
2023/07/29 11:15:19;;;;;;;1.17;1.10;;;22.10;99.90;;;22.68;82.81;97478.53;10371203;28;20220;-81
2023/07/29 11:20:26;;;;;;;1.58;1.10;;;21.90;99.90;;;22.36;90.64;97481.91;10362932;28;20229;-80
2023/07/29 11:25:31;;;;;;;1.50;1.40;;;21.70;99.90;;;22.31;95.83;97451.50;10365987;28;20227;-81
2023/07/29 11:30:34;;;;;;;1.83;1.73;;;21.50;99.90;;;22.43;99.13;97468.06;10362736;28;20601;-80
2023/07/29 11:35:39;;;;;;;1.20;1.20;;;22.00;99.90;;;22.67;95.56;97482.03;10364011;28;20226;-79
2023/07/29 11:40:42;;;;;;;2.85;1.50;;;22.20;99.90;;;23.02;89.42;97468.22;10368690;28;20222;-79
2023/07/29 11:45:46;;;;;;;1.83;1.70;;;22.60;99.90;;;23.33;87.90;97456.06;10368748;28;20231;-78
2023/07/29 11:50:56;;;;;;;1.90;1.50;;;22.80;99.90;;;23.39;88.17;97453.47;10356199;28;20647;-79
2023/07/29 11:56:00;;;;;;;1.70;1.60;;;22.90;99.90;;;23.83;84.11;97450.81;10377824;28;20226;-80
2023/07/29 12:01:04;;;;;;;1.85;1.65;;;23.30;99.90;;;23.97;82.90;97432.50;10369328;28;20229;-79
2023/07/29 12:06:09;;;;;;;1.98;1.73;;;23.30;99.90;;;23.89;84.40;97438.63;10374201;28;20245;-81
2023/07/29 12:11:12;;;;;;;1.70;1.60;;;23.20;99.90;;;23.94;82.52;97421.22;10373169;28;20316;-80
2023/07/29 12:16:18;;;;;;;1.52;1.42;;;23.30;99.90;;;24.29;83.15;97418.47;10367458;28;20318;-80
2023/07/29 12:21:23;;;;;;;2.05;1.70;;;23.60;99.90;;;24.28;82.46;97407.16;10379307;28;20230;-80
2023/07/29 12:26:29;;;;;;;1.67;1.58;;;23.60;99.90;;;24.54;82.89;97398.34;10389850;28;20225;-80
2023/07/29 12:31:33;;;;;;;1.80;1.70;;;23.80;99.90;;;24.72;80.42;97386.91;10376023;28;20226;-80
2023/07/29 12:36:46;;;;;;;1.65;1.55;;;24.00;99.90;;;24.75;79.63;97384.25;10375705;28;20608;-81
2023/07/29 12:41:51;;;;;;;2.00;1.80;;;24.10;99.90;;;24.76;79.23;97377.31;10367328;28;20272;-79
2023/07/29 12:46:55;;;;;;;2.25;1.95;;;24.20;99.90;;;25.17;79.05;97367.41;10373133;28;20238;-80
2023/07/29 12:52:00;;;;;;;1.95;1.80;;;24.60;99.90;;;25.35;77.49;97378.56;10368553;28;20241;-80
2023/07/29 12:57:04;;;;;;;2.65;1.90;;;24.80;99.90;;;25.57;75.72;97390.56;10376038;28;20713;-80
2023/07/29 13:02:07;;;;;;;2.03;1.83;;;24.90;99.90;;;25.71;72.16;97397.44;10370398;28;20628;-80
2023/07/29 13:07:12;;;;;;;1.88;1.77;;;25.00;99.90;;;25.59;70.80;97382.72;10382033;28;20241;-79
2023/07/29 13:12:15;;;;;;;1.90;1.80;;;25.00;99.90;;;25.55;71.50;97386.22;10373792;28;20279;-78
2023/07/29 13:17:19;;;;;;;2.88;1.73;;;24.90;99.90;;;25.90;70.51;97375.44;10378436;28;20285;-79
2023/07/29 13:22:23;;;;;;;1.88;1.77;;;25.30;99.90;;;26.04;68.82;97375.25;10367198;28;20234;-79
2023/07/29 13:27:27;;;;;;;3.15;2.95;;;25.40;99.90;;;26.12;66.64;97372.53;10362595;28;20729;-77
2023/07/29 13:32:30;;;;;;;1.98;1.88;;;25.40;99.90;;;26.08;66.43;97376.97;10370703;28;20643;-78
2023/07/29 13:37:35;;;;;;;2.03;1.90;;;25.30;99.90;;;26.08;67.61;97376.09;10360371;28;20241;-79
2023/07/29 13:42:38;;;;;;;2.03;1.92;;;25.40;99.90;;;26.22;59.40;97382.03;10361763;28;20210;-79
2023/07/29 13:47:41;;;;;;;2.33;2.13;;;25.50;99.90;;;26.24;60.73;97383.75;10367916;28;20324;-78
2023/07/29 13:52:46;;;;;;;2.03;1.83;;;25.60;99.90;;;26.34;57.22;97383.63;10368817;28;20210;-78
2023/07/29 13:57:49;;;;;;;2.30;2.10;;;25.60;99.90;;;26.32;56.32;97386.25;10362280;28;20267;-78
2023/07/29 14:02:53;;;;;;;2.60;2.40;;;25.40;99.90;;;26.24;56.15;97380.22;10360883;28;20655;-77
2023/07/29 14:07:57;;;;;;;2.20;2.00;;;25.30;99.90;;;26.10;57.73;97396.16;10362846;28;20738;-78
2023/07/29 14:13:01;;;;;;;2.20;2.10;;;25.20;99.90;;;25.94;59.83;97384.97;10367245;28;20321;-78
2023/07/29 14:18:04;;;;;;;2.53;2.33;;;25.10;99.90;;;26.14;56.63;97370.78;10367281;28;20770;-78
2023/07/29 14:23:12;;;;;;;2.30;2.10;;;25.30;99.90;;;26.22;56.44;97374.16;10365853;28;20297;-80
2023/07/29 14:28:16;;;;;;;2.50;2.08;;;25.50;99.90;;;26.38;56.33;97372.19;10362021;28;20612;-77
2023/07/29 14:33:19;;;;;;;2.28;2.08;;;25.60;99.90;;;26.40;56.03;97368.66;10366750;28;20218;-79
2023/07/29 14:38:24;;;;;;;2.40;2.28;;;25.60;99.90;;;26.38;55.06;97369.56;10355682;28;20238;-77
2023/07/29 14:43:27;;;;;;;2.58;2.38;;;25.60;99.90;;;26.25;55.95;97367.13;10355989;28;20321;-78
2023/07/29 14:48:31;;;;;;;2.85;2.05;;;25.30;99.90;;;26.12;57.81;97362.06;10358082;28;20309;-77
2023/07/29 14:53:36;;;;;;;2.53;2.20;;;25.30;99.90;;;26.24;57.86;97364.50;10355611;28;20230;-76
2023/07/29 14:58:39;;;;;;;3.47;2.40;;;25.40;99.90;;;26.38;56.62;97359.94;10359323;28;20712;-79
2023/07/29 15:03:42;;;;;;;2.10;2.00;;;25.50;99.90;;;26.42;56.92;97361.66;10355769;28;20228;-78
2023/07/29 15:08:50;;;;;;;2.50;2.40;;;25.60;99.90;;;26.43;57.81;97363.38;10360695;28;20304;-78
2023/07/29 15:13:53;;;;;;;2.80;2.20;;;25.60;99.90;;;26.32;58.61;97364.41;10349708;28;20222;-77
2023/07/29 15:18:57;;;;;;;1.95;1.85;;;25.50;99.90;;;26.17;59.11;97365.50;10361823;28;20232;-79
2023/07/29 15:24:01;;;;;;;2.13;2.03;;;25.30;99.90;;;26.01;59.68;97370.94;10361781;28;20222;-80
2023/07/29 15:29:06;;;;;;;2.15;2.05;;;25.10;99.90;;;25.74;60.59;97374.69;10375537;28;20237;-83
2023/07/29 15:34:10;;;;;;;2.30;2.20;;;24.90;99.90;;;25.81;59.54;97370.25;10377144;28;20298;-81
2023/07/29 15:39:14;;;;;;;2.88;2.40;;;24.90;99.90;;;26.04;57.42;97386.63;10378168;28;20686;-80
2023/07/29 15:44:18;;;;;;;1.88;1.77;;;25.10;99.90;;;25.95;58.23;97376.22;10371174;28;20233;-81
2023/07/29 15:49:21;;;;;;;2.30;2.20;;;25.00;99.90;;;26.32;53.35;97375.75;10368709;28;20316;-81
2023/07/29 15:54:26;;;;;;;2.50;2.30;;;25.30;99.90;;;26.29;52.47;97375.81;10353000;28;20253;-79
2023/07/29 15:59:30;;;;;;;3.03;2.75;;;25.50;99.90;;;26.19;53.16;97364.59;10364278;28;20229;-79
2023/07/29 16:04:33;;;;;;;2.67;2.47;;;25.40;99.90;;;26.16;53.23;97374.25;10353527;28;20229;-80
2023/07/29 16:09:37;;;;;;;2.88;2.40;;;25.30;99.90;;;26.09;53.83;97369.97;10363404;28;20221;-81
2023/07/29 16:14:41;;;;;;;2.70;2.50;;;25.20;99.90;;;26.13;52.46;97372.53;10365766;28;20272;-80
2023/07/29 16:19:55;;;;;;;2.83;2.53;;;25.20;99.90;;;25.86;54.04;97371.09;10359989;28;20484;-82
2023/07/29 16:25:00;;;;;;;3.00;2.67;;;25.10;99.90;;;25.70;56.94;97361.69;10374200;28;20237;-86
2023/07/29 16:30:05;;;;;;;3.00;2.70;;;24.90;99.90;;;25.64;57.22;97357.38;10384552;28;20276;-86
2023/07/29 16:35:09;;;;;;;2.50;2.30;;;24.80;99.90;;;25.70;56.10;97354.69;10371549;28;20225;-84
2023/07/29 16:40:14;;;;;;;2.35;2.15;;;24.90;99.90;;;25.80;55.25;97365.91;10383206;28;20227;-83
2023/07/29 16:45:17;;;;;;;2.58;2.33;;;24.90;99.90;;;25.56;57.75;97357.44;10378545;28;20229;-83
2023/07/29 16:50:21;;;;;;;3.08;2.80;;;24.80;99.90;;;25.67;55.61;97361.69;10377429;28;20317;-84
2023/07/29 16:55:26;;;;;;;2.47;2.30;;;24.90;99.90;;;25.75;55.73;97352.84;10375431;28;20260;-84
2023/07/29 17:00:29;;;;;;;2.78;2.30;;;24.90;99.90;;;25.76;55.05;97348.50;10372356;28;20241;-85
2023/07/29 17:05:33;;;;;;;2.65;2.45;;;25.00;99.90;;;25.75;54.63;97352.00;10373891;28;20340;-85
2023/07/29 17:10:37;;;;;;;3.30;2.67;;;24.90;99.90;;;25.61;55.13;97345.19;10374766;28;20249;-87
2023/07/29 17:15:41;;;;;;;2.40;2.28;;;24.70;99.90;;;25.48;57.69;97348.78;10380212;28;20252;-84
2023/07/29 17:20:44;;;;;;;2.75;2.55;;;24.70;99.90;;;25.29;58.11;97342.00;10374981;28;20214;-84
2023/07/29 17:25:49;;;;;;;3.85;2.30;;;24.50;99.90;;;25.26;57.93;97347.28;10377554;28;20321;-80
2023/07/29 17:30:52;;;;;;;3.60;2.58;;;24.40;99.90;;;25.11;57.98;97359.56;10372430;28;20240;-80
2023/07/29 17:35:56;;;;;;;3.50;2.47;;;24.30;99.90;;;25.05;59.27;97353.53;10353749;28;20671;-78
2023/07/29 17:41:02;;;;;;;2.85;2.65;;;24.20;99.90;;;25.05;58.32;97354.41;10359672;28;20218;-81
2023/07/29 17:46:05;;;;;;;2.53;2.33;;;24.20;99.90;;;25.14;58.28;97349.13;10355848;28;20244;-79
2023/07/29 17:51:08;;;;;;;2.47;2.20;;;24.30;99.90;;;25.05;58.58;97356.16;10363014;28;20237;-79
2023/07/29 17:56:14;;;;;;;3.33;1.40;;;24.10;99.90;;;24.61;61.50;97470.63;10367415;28;20603;-79
2023/07/29 18:01:17;;;;;;;3.95;1.40;;;23.80;99.90;;;22.35;74.65;97490.59;10358848;28;20214;-79
2023/07/29 18:06:20;;;;;;;2.78;1.40;;;21.60;99.90;;;20.67;85.08;97496.13;10350058;28;20230;-86
2023/07/29 18:11:25;;;;;;;2.38;1.92;;;19.90;99.90;;;19.72;95.03;97499.16;10353379;28;20314;-82
2023/07/29 18:16:28;;;;;;;2.50;1.83;;;19.30;99.90;;;19.38;100.00;97510.69;10358513;28;20241;-81
2023/07/29 18:21:32;;;;;;;4.25;2.40;;;19.00;99.90;;;19.21;100.00;97500.91;10362742;28;20592;-82
2023/07/29 18:26:36;;;;;;;7.88;2.90;;;18.80;99.90;;;19.13;100.00;97505.06;10362898;28;20291;-82
2023/07/29 18:31:40;;;;;;;3.03;2.67;;;18.80;99.90;;;19.16;100.00;97502.53;10366865;28;20268;-82
2023/07/29 18:36:43;;;;;;;4.70;2.55;;;18.70;99.90;;;19.07;100.00;97502.38;10358584;28;20250;-83
2023/07/29 18:41:50;;;;;;;2.72;1.98;;;18.60;99.90;;;18.73;100.00;97501.72;10360353;28;20222;-83
2023/07/29 18:46:55;;;;;;;3.22;2.40;;;18.40;99.90;;;18.63;100.00;97503.25;10369179;28;20688;-84
2023/07/29 18:51:59;;;;;;;3.88;3.45;;;18.30;99.90;;;18.83;100.00;97495.91;10364950;28;20218;-83
2023/07/29 18:57:03;;;;;;;4.32;3.38;;;18.50;99.90;;;18.97;100.00;97495.25;10358940;28;20229;-82
2023/07/29 19:02:07;;;;;;;5.07;4.20;;;18.70;99.90;;;19.18;100.00;97499.97;10358160;28;20273;-82
2023/07/29 19:07:10;;;;;;;4.70;3.95;;;18.80;99.90;;;19.09;100.00;97498.09;10356226;28;20254;-81
2023/07/29 19:12:15;;;;;;;4.32;3.92;;;18.80;99.90;;;19.07;100.00;97502.38;10362096;28;20257;-82
2023/07/29 19:17:18;;;;;;;6.05;3.97;;;18.80;99.90;;;19.11;100.00;97488.59;10358585;28;20261;-83
2023/07/29 19:22:22;;;;;;;4.55;3.38;;;18.70;99.90;;;19.15;100.00;97497.34;10355201;28;20228;-80
2023/07/29 19:27:27;;;;;;;3.65;3.05;;;18.60;99.90;;;18.90;100.00;97489.97;10352960;28;20336;-80
2023/07/29 19:32:30;;;;;;;4.90;3.45;;;18.30;99.90;;;18.59;100.00;97492.81;10351783;28;20783;-81
2023/07/29 19:37:33;;;;;;;4.82;4.03;;;18.10;99.90;;;18.81;100.00;97499.31;10352640;28;20301;-81
2023/07/29 19:42:38;;;;;;;5.00;3.83;;;18.20;99.90;;;18.58;100.00;97501.41;10359818;28;20246;-80
2023/07/29 19:47:41;;;;;;;4.63;4.22;;;18.10;99.90;;;18.58;100.00;97504.00;10362593;28;20231;-83
2023/07/29 19:52:45;;;;;;;4.68;4.18;;;18.10;99.90;;;18.67;100.00;97501.59;10359605;28;20218;-81
2023/07/29 19:57:49;;;;;;;5.57;4.35;;;18.20;99.90;;;18.75;100.00;97494.03;10364393;28;20268;-82
2023/07/29 20:02:53;;;;;;;4.70;4.18;;;18.20;99.90;;;18.81;100.00;97494.13;10373033;28;20213;-80
2023/07/29 20:07:56;;;;;;;4.45;4.05;;;18.30;99.90;;;18.84;100.00;97489.00;10363172;28;20230;-85
2023/07/29 20:13:01;;;;;;;4.10;3.70;;;18.30;99.90;;;18.81;100.00;97494.13;10361555;28;20215;-81
2023/07/29 20:18:04;;;;;;;4.30;3.90;;;18.20;99.90;;;18.61;100.00;97506.66;10360045;28;20786;-81
2023/07/29 20:23:08;;;;;;;5.47;4.93;;;18.00;99.90;;;18.49;100.00;97506.41;10368427;28;20226;-80
2023/07/29 20:28:14;;;;;;;5.95;5.32;;;17.90;99.90;;;18.32;100.00;97504.34;10362785;28;20223;-82
2023/07/29 20:33:18;;;;;;;4.97;4.45;;;17.70;99.90;;;18.20;100.00;97499.81;10370742;28;20234;-81
2023/07/29 20:38:21;;;;;;;4.72;4.32;;;17.60;99.90;;;18.29;100.00;97508.59;10366863;28;20433;-83
2023/07/29 20:43:26;;;;;;;4.07;3.65;;;17.70;99.90;;;18.31;100.00;97496.53;10377682;28;20305;-84
2023/07/29 20:48:31;;;;;;;4.47;4.07;;;17.70;99.90;;;18.33;100.00;97505.22;10365267;28;20623;-82
2023/07/29 20:53:34;;;;;;;4.95;4.18;;;17.80;99.90;;;18.27;100.00;97516.31;10364209;28;20230;-81
2023/07/29 20:58:38;;;;;;;4.20;3.72;;;17.70;99.90;;;18.23;100.00;97507.63;10374586;28;20223;-82